createdAt,value
2018-11-04T00:00:06.548Z,28.17
2018-11-04T00:02:34.940Z,32.13
2018-11-04T00:05:06.701Z,30.23
2018-11-04T00:07:34.973Z,30.17
2018-11-04T00:10:06.469Z,26.50
2018-11-04T00:12:34.665Z,25.53
2018-11-04T00:15:07.806Z,24.80
2018-11-04T00:17:36.180Z,31.17
2018-11-04T00:20:10.207Z,26.17
2018-11-04T00:22:38.391Z,29.57
2018-11-04T00:25:09.013Z,29.50
2018-11-04T00:27:37.361Z,24.23
2018-11-04T00:30:09.719Z,23.70
2018-11-04T00:32:38.033Z,23.07
2018-11-04T00:35:08.980Z,29.30
2018-11-04T00:37:37.177Z,24.87
2018-11-04T00:40:06.435Z,22.20
2018-11-04T00:42:34.618Z,27.03
2018-11-04T00:45:05.489Z,31.30
2018-11-04T00:47:33.661Z,28.90
2018-11-04T00:50:03.425Z,34.67
2018-11-04T00:52:31.606Z,28.77
2018-11-04T00:54:59.812Z,26.60
2018-11-04T00:57:27.988Z,26.87
2018-11-04T00:59:56.157Z,29.53
2018-11-04T01:02:24.343Z,29.53
2018-11-04T01:04:52.497Z,27.77
2018-11-04T01:07:20.632Z,26.93
2018-11-04T01:09:48.797Z,28.63
2018-11-04T01:12:16.957Z,26.90
2018-11-04T01:14:45.165Z,24.60
2018-11-04T01:17:13.345Z,25.90
2018-11-04T01:19:41.518Z,23.57
2018-11-04T01:22:09.701Z,24.27
2018-11-04T01:24:37.981Z,22.17
2018-11-04T01:27:08.565Z,23.50
2018-11-04T01:29:36.721Z,22.83
2018-11-04T01:32:06.138Z,22.80
2018-11-04T01:34:34.324Z,22.47
2018-11-04T01:37:04.463Z,23.70
2018-11-04T01:39:32.655Z,22.90
2018-11-04T01:42:02.856Z,20.40
2018-11-04T01:44:31.070Z,28.63
2018-11-04T01:46:59.218Z,22.30
2018-11-04T01:49:27.398Z,26.87
2018-11-04T01:51:55.601Z,22.83
2018-11-04T01:54:23.773Z,21.07
2018-11-04T01:56:52.817Z,22.87
2018-11-04T01:59:21.029Z,22.57
2018-11-04T02:01:49.184Z,22.60
2018-11-04T02:04:17.324Z,21.90
2018-11-04T02:06:46.196Z,21.00
2018-11-04T02:09:14.385Z,24.03
2018-11-04T02:11:42.627Z,21.43
2018-11-04T02:14:10.828Z,20.57
2018-11-04T02:16:39.029Z,20.70
2018-11-04T02:19:07.193Z,23.43
2018-11-04T02:21:35.370Z,25.80
2018-11-04T02:24:08.585Z,23.33
2018-11-04T02:26:36.808Z,23.07
2018-11-04T02:29:06.705Z,29.60
2018-11-04T02:31:35.185Z,23.33
2018-11-04T02:34:05.124Z,27.00
2018-11-04T02:36:33.285Z,26.13
2018-11-04T02:39:01.942Z,23.13
2018-11-04T02:41:30.130Z,25.57
2018-11-04T02:43:59.458Z,26.17
2018-11-04T02:46:27.628Z,23.93
2018-11-04T02:48:55.878Z,27.60
2018-11-04T02:51:24.108Z,30.30
2018-11-04T02:53:52.280Z,29.33
2018-11-04T02:56:20.494Z,27.63
2018-11-04T02:58:48.657Z,29.50
2018-11-04T03:01:16.841Z,26.90
2018-11-04T03:03:44.985Z,29.10
2018-11-04T03:06:13.170Z,25.23
2018-11-04T03:08:41.354Z,24.90
2018-11-04T03:11:09.553Z,29.63
2018-11-04T03:13:37.778Z,24.80
2018-11-04T03:16:06.161Z,30.67
2018-11-04T03:18:34.377Z,26.17
2018-11-04T03:21:04.310Z,24.97
2018-11-04T03:23:32.493Z,31.60
2018-11-04T03:26:07.409Z,26.67
2018-11-04T03:28:35.590Z,23.20
2018-11-04T03:31:05.844Z,32.80
2018-11-04T03:33:34.076Z,28.73
2018-11-04T03:36:06.605Z,26.67
2018-11-04T03:41:09.301Z,26.67
2018-11-04T03:43:37.459Z,22.53
2018-11-04T03:46:07.207Z,22.33
2018-11-04T03:48:35.396Z,25.13
2018-11-04T03:51:05.906Z,22.90
2018-11-04T03:53:34.094Z,22.53
2018-11-04T03:56:04.355Z,23.90
2018-11-04T03:58:32.521Z,27.00
2018-11-04T04:01:03.051Z,28.93
2018-11-04T04:03:31.228Z,21.53
2018-11-04T04:05:59.401Z,24.13
2018-11-04T04:08:27.548Z,20.60
2018-11-04T04:10:55.723Z,21.20
2018-11-04T04:13:24.538Z,23.00
2018-11-04T04:15:52.706Z,20.17
2018-11-04T04:18:20.856Z,22.10
2018-11-04T04:20:53.334Z,23.27
2018-11-04T04:23:21.909Z,22.10
2018-11-04T04:25:50.065Z,19.77
2018-11-04T04:28:18.210Z,19.43
2018-11-04T04:30:46.402Z,22.63
2018-11-04T04:33:14.582Z,27.50
2018-11-04T04:35:42.789Z,20.67
2018-11-04T04:38:10.990Z,20.07
2018-11-04T04:40:39.461Z,22.00
2018-11-04T04:43:08.251Z,22.80
2018-11-04T04:45:36.409Z,21.50
2018-11-04T04:48:06.957Z,24.57
2018-11-04T04:50:35.152Z,21.80
2018-11-04T04:53:04.121Z,19.17
2018-11-04T04:55:32.796Z,20.37
2018-11-04T04:58:05.160Z,23.90
2018-11-04T05:00:33.708Z,25.10
2018-11-04T05:03:02.801Z,23.00
2018-11-04T05:05:31.023Z,21.40
2018-11-04T05:07:59.222Z,23.70
2018-11-04T05:10:27.396Z,21.00
2018-11-04T05:12:55.560Z,32.43
2018-11-04T05:15:23.784Z,22.90
2018-11-04T05:17:52.012Z,24.33
2018-11-04T05:20:20.148Z,26.33
2018-11-04T05:22:49.250Z,27.90
2018-11-04T05:25:17.438Z,28.17
2018-11-04T05:27:47.316Z,28.93
2018-11-04T05:30:15.541Z,35.50
2018-11-04T05:32:43.704Z,31.33
2018-11-04T05:35:11.873Z,33.30
2018-11-04T05:37:40.036Z,37.80
2018-11-04T05:40:08.571Z,32.23
2018-11-04T05:42:38.482Z,36.70
2018-11-04T05:45:07.081Z,39.77
2018-11-04T05:47:35.232Z,34.73
2018-11-04T05:50:05.523Z,38.77
2018-11-04T05:52:33.941Z,38.40
2018-11-04T05:55:04.556Z,37.97
2018-11-04T05:57:32.855Z,37.03
2018-11-04T06:00:03.665Z,38.97
2018-11-04T06:02:32.769Z,36.83
2018-11-04T06:05:06.264Z,37.83
2018-11-04T06:07:34.450Z,38.50
2018-11-04T06:10:07.068Z,35.20
2018-11-04T06:12:35.461Z,33.57
2018-11-04T06:15:06.469Z,35.97
2018-11-04T06:17:34.732Z,37.93
2018-11-04T06:20:05.747Z,38.17
2018-11-04T06:22:33.917Z,35.43
2018-11-04T06:25:05.682Z,38.40
2018-11-04T06:27:33.902Z,37.40
2018-11-04T06:30:06.349Z,47.57
2018-11-04T06:32:34.576Z,43.83
2018-11-04T06:35:05.676Z,30.43
2018-11-04T06:37:33.906Z,29.23
2018-11-04T06:40:06.312Z,28.70
2018-11-04T06:42:34.492Z,27.07
2018-11-04T06:45:07.671Z,30.33
2018-11-04T06:47:36.156Z,30.87
2018-11-04T06:50:07.868Z,27.77
2018-11-04T06:52:36.041Z,30.73
2018-11-04T06:55:05.276Z,25.90
2018-11-04T06:57:33.488Z,28.33
2018-11-04T07:00:03.643Z,31.97
2018-11-04T07:02:31.740Z,27.00
2018-11-04T07:04:59.881Z,28.80
2018-11-04T07:07:28.101Z,28.40
2018-11-04T07:09:56.265Z,27.10
2018-11-04T07:12:24.442Z,24.60
2018-11-04T07:14:52.623Z,25.80
2018-11-04T07:17:20.748Z,28.17
2018-11-04T07:19:48.951Z,25.47
2018-11-04T07:22:17.097Z,25.13
2018-11-04T07:24:45.292Z,35.50
2018-11-04T07:27:13.500Z,28.17
2018-11-04T07:29:41.704Z,25.87
2018-11-04T07:32:09.906Z,32.23
2018-11-04T07:34:38.490Z,32.97
2018-11-04T07:37:06.761Z,35.97
2018-11-04T07:39:34.913Z,28.73
2018-11-04T07:42:05.798Z,28.63
2018-11-04T07:44:33.976Z,31.03
2018-11-04T07:47:02.888Z,28.90
2018-11-04T07:49:31.073Z,31.40
2018-11-04T07:51:59.276Z,30.20
2018-11-04T07:54:27.921Z,28.23
2018-11-04T07:56:56.108Z,33.77
2018-11-04T07:59:24.289Z,30.97
2018-11-04T08:01:53.360Z,31.40
2018-11-04T08:04:21.605Z,35.63
2018-11-04T08:06:49.997Z,34.13
2018-11-04T08:09:18.893Z,28.83
2018-11-04T08:11:47.093Z,34.90
2018-11-04T08:14:17.022Z,28.70
2018-11-04T08:16:45.185Z,33.27
2018-11-04T08:19:13.352Z,30.93
2018-11-04T08:21:41.521Z,33.73
2018-11-04T08:24:09.953Z,39.60
2018-11-04T08:26:38.366Z,38.13
2018-11-04T08:29:07.785Z,27.00
2018-11-04T08:31:35.973Z,35.30
2018-11-04T08:34:04.121Z,32.50
2018-11-04T08:36:33.484Z,31.50
2018-11-04T08:39:02.730Z,34.90
2018-11-04T08:41:30.892Z,40.00
2018-11-04T08:43:59.076Z,34.57
2018-11-04T08:46:27.227Z,33.70
2018-11-04T08:48:55.429Z,36.77
2018-11-04T08:51:23.581Z,35.40
2018-11-04T08:53:51.729Z,34.70
2018-11-04T08:56:20.604Z,34.77
2018-11-04T08:58:48.789Z,37.50
2018-11-04T09:01:16.936Z,34.90
2018-11-04T09:03:45.160Z,38.10
2018-11-04T09:06:13.934Z,44.47
2018-11-04T09:08:42.091Z,45.67
2018-11-04T09:11:10.286Z,39.07
2018-11-04T09:13:38.447Z,41.00
2018-11-04T09:16:06.697Z,31.80
2018-11-04T09:18:34.901Z,35.47
2018-11-04T09:21:06.625Z,34.47
2018-11-04T09:23:34.859Z,36.53
2018-11-04T09:26:07.613Z,34.30
2018-11-04T09:28:35.800Z,37.50
2018-11-04T09:31:06.838Z,33.17
2018-11-04T09:33:34.990Z,33.90
2018-11-04T09:36:05.051Z,34.70
2018-11-04T09:38:33.189Z,29.40
2018-11-04T09:41:03.919Z,32.87
2018-11-04T09:43:32.989Z,31.90
2018-11-04T09:46:04.680Z,33.50
2018-11-04T09:48:33.137Z,28.10
2018-11-04T09:51:05.529Z,35.00
2018-11-04T09:53:34.609Z,31.50
2018-11-04T09:56:05.765Z,32.70
2018-11-04T09:58:33.970Z,30.20
2018-11-04T10:01:06.610Z,34.70
2018-11-04T10:03:34.957Z,31.50
2018-11-04T10:06:07.536Z,32.13
2018-11-04T10:08:35.657Z,29.30
2018-11-04T10:11:06.810Z,28.57
2018-11-04T10:13:34.985Z,33.13
2018-11-04T10:16:05.457Z,27.50
2018-11-04T10:18:33.625Z,27.03
2018-11-04T10:21:07.133Z,28.17
2018-11-04T10:23:34.852Z,27.93
2018-11-04T10:31:49.701Z,28.57
2018-11-04T10:34:17.899Z,26.63
2018-11-04T10:36:46.048Z,31.10
2018-11-04T10:39:14.317Z,27.60
2018-11-04T10:41:43.273Z,31.53
2018-11-04T10:44:11.591Z,32.00
2018-11-04T10:46:39.737Z,33.97
2018-11-04T10:49:07.993Z,29.53
2018-11-04T10:51:36.134Z,31.63
2018-11-04T10:54:06.856Z,30.83
2018-11-04T10:56:35.758Z,29.87
2018-11-04T10:59:08.744Z,28.93
2018-11-04T11:01:37.417Z,27.60
2018-11-04T11:04:05.646Z,36.43
2018-11-04T11:06:33.788Z,32.57
2018-11-04T11:09:04.665Z,36.43
2018-11-04T11:11:32.831Z,33.30
2018-11-04T11:14:05.576Z,33.87
2018-11-04T11:16:33.743Z,32.90
2018-11-04T11:19:02.752Z,27.67
2018-11-04T11:21:30.997Z,27.20
2018-11-04T11:23:59.172Z,26.17
2018-11-04T11:26:27.614Z,24.90
2018-11-04T11:28:56.094Z,28.80
2018-11-04T11:31:25.885Z,30.40
2018-11-04T11:33:54.035Z,23.33
2018-11-04T11:36:22.251Z,26.40
2018-11-04T11:38:50.396Z,27.30
2018-11-04T11:41:18.557Z,24.23
2018-11-04T11:43:46.776Z,25.50
2018-11-04T11:46:14.973Z,30.80
2018-11-04T11:48:43.941Z,29.27
2018-11-04T11:51:12.103Z,22.20
2018-11-04T11:53:40.272Z,22.23
2018-11-04T11:56:08.525Z,26.53
2018-11-04T11:58:36.729Z,26.60
2018-11-04T12:01:07.514Z,25.93
2018-11-04T12:03:35.693Z,21.00
2018-11-04T12:06:08.188Z,23.03
2018-11-04T12:08:36.377Z,27.07
2018-11-04T12:11:05.781Z,22.70
2018-11-04T12:13:34.005Z,24.10
2018-11-04T12:16:06.524Z,24.67
2018-11-04T12:18:35.384Z,25.00
2018-11-04T12:21:05.529Z,24.50
2018-11-04T12:23:33.747Z,22.90
2018-11-04T12:26:03.428Z,22.73
2018-11-04T12:28:31.602Z,19.77
2018-11-04T12:30:59.768Z,23.50
2018-11-04T12:33:27.976Z,23.93
2018-11-04T12:35:56.149Z,20.17
2018-11-04T12:38:24.324Z,24.23
2018-11-04T12:40:52.558Z,20.03
2018-11-04T12:43:20.798Z,22.63
2018-11-04T12:45:49.215Z,20.43
2018-11-04T12:48:17.218Z,23.57
2018-11-04T12:50:45.420Z,25.10
2018-11-04T12:53:13.619Z,22.40
2018-11-04T12:55:41.813Z,20.90
2018-11-04T12:58:10.014Z,20.50
2018-11-04T13:00:38.188Z,22.10
2018-11-04T13:03:07.077Z,22.00
2018-11-04T13:05:35.236Z,19.30
2018-11-04T13:08:05.640Z,16.93
2018-11-04T13:10:33.813Z,19.13
2018-11-04T13:13:06.994Z,21.23
2018-11-04T13:15:35.168Z,19.97
2018-11-04T13:18:08.364Z,20.57
2018-11-04T13:20:36.534Z,17.83
2018-11-04T13:23:05.632Z,17.60
2018-11-04T13:25:33.838Z,19.33
2018-11-04T13:28:06.836Z,17.57
2018-11-04T13:30:34.969Z,20.20
2018-11-04T13:33:08.118Z,17.60
2018-11-04T13:35:37.046Z,16.07
2018-11-04T13:38:06.210Z,19.50
2018-11-04T13:40:34.372Z,19.60
2018-11-04T13:43:07.864Z,15.40
2018-11-04T13:45:35.937Z,16.33
2018-11-04T13:48:04.694Z,17.10
2018-11-04T13:50:32.856Z,11.93
2018-11-04T13:53:07.165Z,13.10
2018-11-04T13:55:35.320Z,19.17
2018-11-04T13:58:06.732Z,16.20
2018-11-04T14:00:34.879Z,17.87
2018-11-04T14:03:04.139Z,14.93
2018-11-04T14:05:32.213Z,16.57
2018-11-04T14:08:00.434Z,14.43
2018-11-04T14:10:28.604Z,13.53
2018-11-04T14:12:56.799Z,13.57
2018-11-04T14:15:24.941Z,14.60
2018-11-04T14:17:53.206Z,17.77
2018-11-04T14:20:21.360Z,14.17
2018-11-04T14:22:49.552Z,12.20
2018-11-04T14:25:17.844Z,16.80
2018-11-04T14:27:46.103Z,12.70
2018-11-04T14:30:15.225Z,14.90
2018-11-04T14:32:43.810Z,14.33
2018-11-04T14:35:12.409Z,13.33
2018-11-04T14:37:41.408Z,10.37
2018-11-04T14:40:11.520Z,11.37
2018-11-04T14:42:41.544Z,15.27
2018-11-04T14:45:09.905Z,12.47
2018-11-04T14:47:38.717Z,15.93
2018-11-04T14:50:11.434Z,14.53
2018-11-04T14:52:40.629Z,12.97
2018-11-04T14:55:08.761Z,14.80
2018-11-04T14:57:37.813Z,15.03
2018-11-04T15:00:08.356Z,12.77
2018-11-04T15:02:36.525Z,12.43
2018-11-04T15:05:08.217Z,11.60
2018-11-04T15:07:37.200Z,11.90
2018-11-04T15:10:06.830Z,14.17
2018-11-04T15:12:35.057Z,14.20
2018-11-04T15:15:07.319Z,13.30
2018-11-04T15:17:35.541Z,13.87
2018-11-04T15:20:10.365Z,12.07
2018-11-04T15:22:45.510Z,12.00
2018-11-04T15:25:14.369Z,12.10
2018-11-04T15:27:43.540Z,12.10
2018-11-04T15:30:12.256Z,12.17
2018-11-04T15:32:40.996Z,12.70
2018-11-04T15:35:09.188Z,11.13
2018-11-04T15:37:37.341Z,10.27
2018-11-04T15:40:07.630Z,12.27
2018-11-04T15:42:35.775Z,11.87
2018-11-04T15:45:05.996Z,10.60
2018-11-04T15:47:34.172Z,13.17
2018-11-04T15:50:05.968Z,11.87
2018-11-04T15:52:34.113Z,13.90
2018-11-04T15:55:07.018Z,10.70
2018-11-04T15:57:35.218Z,12.80
2018-11-04T16:00:06.528Z,11.57
2018-11-04T16:02:34.757Z,10.53
2018-11-04T16:05:06.082Z,12.17
2018-11-04T16:07:34.216Z,12.20
2018-11-04T16:10:04.637Z,13.00
2018-11-04T16:12:33.302Z,10.70
2018-11-04T16:15:05.287Z,11.87
2018-11-04T16:17:33.345Z,10.20
2018-11-04T16:20:03.768Z,11.13
2018-11-04T16:22:32.792Z,12.07
2018-11-04T16:25:04.721Z,9.77
2018-11-04T16:27:32.951Z,10.93
2018-11-04T16:30:05.900Z,10.50
2018-11-04T16:32:34.092Z,9.80
2018-11-04T16:35:07.193Z,9.83
2018-11-04T16:37:35.379Z,14.20
2018-11-04T16:40:04.188Z,12.50
2018-11-04T16:42:32.573Z,14.23
2018-11-04T16:45:00.772Z,11.83
2018-11-04T16:47:30.726Z,14.17
2018-11-04T16:49:58.977Z,11.37
2018-11-04T16:52:27.321Z,15.27
2018-11-04T16:54:55.753Z,14.27
2018-11-04T16:57:23.961Z,13.60
2018-11-04T16:59:52.173Z,12.93
2018-11-04T17:02:20.772Z,13.60
2018-11-04T17:04:49.788Z,14.37
2018-11-04T17:07:17.932Z,11.43
2018-11-04T17:09:46.224Z,12.67
2018-11-04T17:12:14.381Z,16.10
2018-11-04T17:14:43.430Z,12.40
2018-11-04T17:17:12.029Z,12.40
2018-11-04T17:19:40.640Z,12.53
2018-11-04T17:22:08.824Z,13.53
2018-11-04T17:24:36.989Z,12.73
2018-11-04T17:27:05.347Z,13.83
2018-11-04T17:29:33.602Z,14.93
2018-11-04T17:32:03.830Z,10.07
2018-11-04T17:34:32.107Z,12.87
2018-11-04T17:37:00.303Z,12.00
2018-11-04T17:39:28.597Z,13.20
2018-11-04T17:41:56.704Z,12.70
2018-11-04T17:44:24.897Z,12.53
2018-11-04T17:46:53.090Z,11.10
2018-11-04T17:49:21.336Z,11.57
2018-11-04T17:51:49.501Z,11.10
2018-11-04T17:54:17.788Z,10.73
2018-11-04T17:56:46.109Z,11.80
2018-11-04T17:59:14.288Z,10.10
2018-11-04T18:01:42.663Z,10.47
2018-11-04T18:04:10.829Z,13.63
2018-11-04T18:06:39.044Z,12.33
2018-11-04T18:09:08.334Z,12.53
2018-11-04T18:11:36.578Z,13.47
2018-11-04T18:14:04.785Z,11.30
2018-11-04T18:16:32.929Z,12.60
2018-11-04T18:19:04.565Z,10.23
2018-11-04T18:21:32.741Z,12.93
2018-11-04T18:24:04.597Z,10.80
2018-11-04T18:26:33.507Z,12.77
2018-11-04T18:29:05.656Z,13.70
2018-11-04T18:31:33.837Z,10.17
2018-11-04T18:34:03.860Z,13.80
2018-11-04T18:36:32.225Z,11.80
2018-11-04T18:39:00.377Z,11.73
2018-11-04T18:41:28.525Z,10.93
2018-11-04T18:43:56.813Z,12.63
2018-11-04T18:46:24.925Z,13.47
2018-11-04T18:48:53.124Z,12.57
2018-11-04T18:51:21.458Z,12.23
2018-11-04T18:53:49.665Z,11.97
2018-11-04T18:56:17.852Z,10.33
2018-11-04T18:58:46.833Z,13.63
2018-11-04T19:01:15.066Z,10.90
2018-11-04T19:03:43.524Z,12.03
2018-11-04T19:06:11.677Z,12.37
2018-11-04T19:08:39.817Z,11.13
2018-11-04T19:11:08.056Z,11.43
2018-11-04T19:13:37.386Z,14.30
2018-11-04T19:16:06.252Z,14.77
2018-11-04T19:18:34.590Z,11.50
2018-11-04T19:21:04.104Z,15.40
2018-11-04T19:23:32.265Z,11.13
2018-11-04T19:26:00.565Z,10.13
2018-11-04T19:28:28.810Z,12.20
2018-11-04T19:30:56.989Z,16.10
2018-11-04T19:33:25.156Z,12.93
2018-11-04T19:35:53.336Z,13.73
2018-11-04T19:38:21.710Z,11.33
2018-11-04T19:40:49.852Z,13.30
2018-11-04T19:43:18.892Z,14.30
2018-11-04T19:45:48.314Z,15.03
2018-11-04T19:48:16.577Z,13.77
2018-11-04T19:50:45.638Z,13.47
2018-11-04T19:53:14.364Z,14.23
2018-11-04T19:55:42.535Z,14.97
2018-11-04T19:58:10.773Z,15.53
2018-11-04T20:00:39.861Z,14.13
2018-11-04T20:03:09.466Z,13.47
2018-11-04T20:05:37.618Z,13.33
2018-11-04T20:08:06.130Z,16.60
2018-11-04T20:10:35.034Z,13.80
2018-11-04T20:13:09.577Z,14.03
2018-11-04T20:15:37.730Z,13.30
2018-11-04T20:18:11.485Z,16.70
2018-11-04T20:20:40.506Z,13.53
2018-11-04T20:23:08.715Z,15.80
2018-11-04T20:25:42.239Z,14.93
2018-11-04T20:28:10.325Z,15.80
2018-11-04T20:30:39.321Z,16.40
2018-11-04T20:33:09.192Z,18.17
2018-11-04T20:35:37.388Z,14.43
2018-11-04T20:38:05.869Z,16.77
2018-11-04T20:40:39.353Z,16.70
2018-11-04T20:43:07.553Z,17.63
2018-11-04T20:45:35.669Z,18.30
2018-11-04T20:48:13.885Z,18.50
2018-11-04T20:50:47.518Z,13.87
2018-11-04T20:53:15.698Z,16.00
2018-11-04T20:55:49.881Z,15.70
2018-11-04T20:58:18.138Z,16.40
2018-11-04T21:00:46.250Z,14.60
2018-11-04T21:03:14.396Z,15.33
2018-11-04T21:05:42.569Z,18.00
2018-11-04T21:08:10.750Z,16.23
2018-11-04T21:10:38.899Z,18.03
2018-11-04T21:13:07.104Z,15.97
2018-11-04T21:15:35.254Z,16.50
2018-11-04T21:18:05.643Z,17.30
2018-11-04T21:20:33.808Z,17.43
2018-11-04T21:23:05.521Z,16.87
2018-11-04T21:25:33.976Z,13.80
2018-11-04T21:28:06.722Z,22.03
2018-11-04T21:30:34.764Z,15.00
2018-11-04T21:33:05.275Z,17.90
2018-11-04T21:35:34.477Z,17.60
2018-11-04T21:38:04.050Z,14.07
2018-11-04T21:40:32.250Z,13.97
2018-11-04T21:43:00.637Z,16.03
2018-11-04T21:45:28.738Z,16.33
2018-11-04T21:47:56.881Z,17.00
2018-11-04T21:50:25.115Z,18.73
2018-11-04T21:52:53.293Z,17.37
2018-11-04T21:55:21.589Z,16.40
2018-11-04T21:57:49.616Z,17.10
2018-11-04T22:00:18.558Z,16.57
2018-11-04T22:02:46.887Z,17.83
2018-11-04T22:05:15.004Z,18.83
2018-11-04T22:07:43.836Z,18.37
2018-11-04T22:10:13.869Z,15.10
2018-11-04T22:12:42.540Z,17.67
2018-11-04T22:15:10.908Z,15.80
2018-11-04T22:17:39.580Z,18.20
2018-11-04T22:20:08.977Z,17.00
2018-11-04T22:22:37.209Z,15.33
2018-11-04T22:25:06.055Z,16.53
2018-11-04T22:27:34.236Z,15.00
2018-11-04T22:30:05.748Z,15.23
2018-11-04T22:32:33.880Z,17.90
2018-11-04T22:35:03.997Z,15.00
2018-11-04T22:37:33.109Z,19.43
2018-11-04T22:40:04.694Z,18.13
2018-11-04T22:42:32.913Z,21.53
2018-11-04T22:45:04.437Z,16.90
2018-11-04T22:47:32.881Z,18.90
2018-11-04T22:50:02.105Z,17.17
2018-11-04T22:52:30.984Z,16.90
2018-11-04T22:54:59.158Z,18.03
2018-11-04T22:57:27.316Z,13.83
2018-11-04T22:59:56.640Z,19.30
2018-11-04T23:02:24.768Z,16.50
2018-11-04T23:04:59.232Z,18.53
2018-11-04T23:07:27.358Z,14.03
2018-11-04T23:09:55.548Z,17.97
2018-11-04T23:12:23.682Z,18.23
2018-11-04T23:14:51.868Z,17.70
2018-11-04T23:17:20.040Z,15.97
2018-11-04T23:19:48.195Z,18.23
2018-11-04T23:22:16.349Z,14.93
2018-11-04T23:24:44.525Z,17.30
2018-11-04T23:27:12.848Z,20.07
2018-11-04T23:29:41.325Z,17.03
2018-11-04T23:32:09.513Z,19.33
2018-11-04T23:34:37.680Z,20.10
2018-11-04T23:37:06.329Z,25.67
2018-11-04T23:39:34.533Z,18.63
2018-11-04T23:42:04.324Z,16.60
2018-11-04T23:44:32.473Z,20.00
2018-11-04T23:47:00.672Z,15.40
2018-11-04T23:49:28.840Z,18.17
2018-11-04T23:51:57.003Z,20.87
2018-11-04T23:54:25.122Z,17.23
2018-11-04T23:56:53.280Z,20.00
2018-11-04T23:59:21.434Z,16.67
